Time;durP1;ratioP1;P1;durP2;ratioP2;P2;SDS_P1;SDS_P2;PMS_P1;PMS_P2;Temp;Humidity;BMP_temperature;BMP_pressure;BME280_temperature;BME280_humidity;BME280_pressure;Samples;Min_cycle;Max_cycle;Signal;HPM_P1;HPM_P2
2023/02/03 00:01:12;;;;;;;8.23;3.03;;;9.60;49.60;;;;;;6122095;29;20184;-63
2023/02/03 00:04:13;;;;;;;8.35;3.00;;;9.60;49.70;;;;;;6122536;29;20429;-63
2023/02/03 00:07:14;;;;;;;6.90;3.10;;;9.50;49.70;;;;;;6122369;29;20035;-63
2023/02/03 00:10:20;;;;;;;14.13;3.97;;;9.50;49.70;;;;;;6121872;29;20495;-62
2023/02/03 00:13:21;;;;;;;7.93;3.35;;;9.40;49.70;;;;;;6123309;29;20030;-63
2023/02/03 00:16:22;;;;;;;11.63;3.70;;;9.40;49.90;;;;;;6123394;29;20031;-63
2023/02/03 00:19:23;;;;;;;16.33;3.80;;;9.30;49.90;;;;;;6122740;29;20043;-62
2023/02/03 00:22:24;;;;;;;9.40;3.47;;;9.30;50.00;;;;;;6121668;28;20329;-62
2023/02/03 00:25:25;;;;;;;15.57;3.20;;;9.30;50.10;;;;;;6123013;28;20426;-63
2023/02/03 00:28:30;;;;;;;10.93;2.72;;;9.20;50.00;;;;;;6122759;28;20082;-63
2023/02/03 00:31:31;;;;;;;17.63;3.70;;;9.20;50.10;;;;;;6121693;28;20464;-61
2023/02/03 00:34:32;;;;;;;6.80;3.17;;;9.20;50.30;;;;;;6121672;29;20042;-63
2023/02/03 00:37:34;;;;;;;7.93;3.40;;;9.10;50.40;;;;;;6121413;29;20039;-62
2023/02/03 00:40:35;;;;;;;15.23;3.85;;;9.10;50.60;;;;;;6121571;29;20054;-63
2023/02/03 00:43:36;;;;;;;7.32;3.25;;;9.00;50.70;;;;;;6121495;28;20059;-63
2023/02/03 00:46:37;;;;;;;9.20;3.38;;;9.00;50.90;;;;;;6121601;29;20067;-63
2023/02/03 00:49:38;;;;;;;6.95;3.28;;;8.90;51.00;;;;;;6120336;29;20448;-62
2023/02/03 00:52:39;;;;;;;7.45;2.95;;;8.80;51.00;;;;;;6121067;29;20034;-62
2023/02/03 00:55:42;;;;;;;12.68;3.35;;;8.80;51.20;;;;;;6121887;29;20043;-63
2023/02/03 00:58:44;;;;;;;9.18;3.25;;;8.80;51.30;;;;;;6121370;28;20032;-63
2023/02/03 01:01:45;;;;;;;7.53;3.30;;;8.80;51.30;;;;;;6121183;29;20098;-64
2023/02/03 01:04:47;;;;;;;10.18;3.38;;;8.70;51.40;;;;;;6121216;29;20039;-62
2023/02/03 01:07:48;;;;;;;6.95;2.83;;;8.70;51.40;;;;;;6120952;29;20036;-62
2023/02/03 01:10:49;;;;;;;9.05;3.15;;;8.60;51.40;;;;;;6122242;29;20043;-63
2023/02/03 01:13:50;;;;;;;8.57;2.85;;;8.60;51.60;;;;;;6121054;29;20043;-63
2023/02/03 01:16:51;;;;;;;9.68;3.28;;;8.60;51.70;;;;;;6121333;29;20473;-62
2023/02/03 01:19:52;;;;;;;10.73;3.90;;;8.50;51.70;;;;;;6121900;28;20038;-62
2023/02/03 01:22:53;;;;;;;6.60;4.20;;;8.50;51.80;;;;;;6120705;28;20047;-63
2023/02/03 01:25:54;;;;;;;10.38;2.95;;;8.40;51.80;;;;;;6122083;29;20042;-63
2023/02/03 01:28:57;;;;;;;6.15;3.08;;;8.40;52.00;;;;;;6120554;28;20373;-63
2023/02/03 01:31:58;;;;;;;7.63;3.83;;;8.40;52.10;;;;;;6120817;28;20063;-63
2023/02/03 01:34:59;;;;;;;22.05;3.20;;;8.30;52.20;;;;;;6122206;29;20032;-63
2023/02/03 01:38:00;;;;;;;6.35;2.83;;;8.30;52.40;;;;;;6122430;29;20035;-63
2023/02/03 01:41:01;;;;;;;7.60;3.22;;;8.20;52.50;;;;;;6121150;29;20044;-63
2023/02/03 01:44:34;;;;;;;8.05;4.03;;;8.20;52.70;;;;;;6122212;29;20476;-64
2023/02/03 01:47:49;;;;;;;11.88;3.92;;;8.10;52.70;;;;;;6120387;28;20039;-64
2023/02/03 01:50:51;;;;;;;9.60;3.65;;;8.10;52.80;;;;;;6104807;29;20047;-63
2023/02/03 01:53:53;;;;;;;9.85;3.75;;;8.10;52.80;;;;;;6121682;28;20032;-63
2023/02/03 01:56:59;;;;;;;9.80;4.20;;;8.10;52.90;;;;;;6121991;29;20093;-63
2023/02/03 02:00:02;;;;;;;10.63;3.08;;;8.00;52.90;;;;;;6120061;29;20488;-63
2023/02/03 02:03:15;;;;;;;9.23;3.47;;;7.90;53.00;;;;;;6120642;29;20118;-63
2023/02/03 02:06:16;;;;;;;10.98;3.55;;;7.90;53.20;;;;;;6123717;29;20082;-62
2023/02/03 02:09:18;;;;;;;8.77;3.17;;;7.80;53.30;;;;;;6125326;29;20031;-62
2023/02/03 02:12:19;;;;;;;6.07;3.38;;;7.80;53.40;;;;;;6124213;28;20388;-62
2023/02/03 02:15:24;;;;;;;14.07;4.07;;;7.70;53.50;;;;;;6124170;28;20055;-62
2023/02/03 02:18:58;;;;;;;5.88;3.47;;;7.70;53.50;;;;;;6123805;29;20030;-62
2023/02/03 02:22:02;;;;;;;10.40;3.40;;;7.70;53.50;;;;;;6124383;28;20123;-66
2023/02/03 02:25:41;;;;;;;4.95;3.30;;;7.80;53.60;;;;;;6123871;28;20039;-62
2023/02/03 02:29:10;;;;;;;7.47;3.33;;;7.80;53.50;;;;;;6108042;28;20031;-62
2023/02/03 02:32:32;;;;;;;10.75;3.75;;;7.80;53.50;;;;;;6109984;28;20267;-62
2023/02/03 02:35:51;;;;;;;8.38;3.70;;;7.90;53.60;;;;;;6124374;28;20028;-63
2023/02/03 02:39:03;;;;;;;14.95;3.80;;;7.90;53.60;;;;;;6123707;28;20067;-63
2023/02/03 02:42:11;;;;;;;22.02;4.22;;;7.80;53.50;;;;;;6125217;29;20035;-62
2023/02/03 02:45:25;;;;;;;16.98;4.38;;;7.90;53.70;;;;;;6123823;29;20102;-64
2023/02/03 02:48:39;;;;;;;11.50;4.18;;;7.90;53.70;;;;;;6123343;28;20035;-63
2023/02/03 02:51:44;;;;;;;9.35;3.92;;;7.90;53.70;;;;;;6123724;28;20307;-62
2023/02/03 02:54:51;;;;;;;8.38;3.85;;;7.80;53.60;;;;;;6123845;28;20499;-62
2023/02/03 02:57:57;;;;;;;7.25;4.55;;;7.80;53.70;;;;;;6123219;29;20044;-63
2023/02/03 03:00:59;;;;;;;8.57;3.92;;;7.80;53.70;;;;;;6124693;29;20055;-62
2023/02/03 03:04:04;;;;;;;8.77;3.97;;;7.80;53.80;;;;;;6123492;28;20036;-63
2023/02/03 03:07:14;;;;;;;15.10;3.63;;;7.80;53.90;;;;;;6123341;29;20081;-63
2023/02/03 03:10:20;;;;;;;8.60;3.88;;;7.80;54.00;;;;;;6106725;28;20082;-64
2023/02/03 03:13:29;;;;;;;11.05;3.75;;;7.70;54.10;;;;;;6123172;28;20032;-64
2023/02/03 03:16:32;;;;;;;;;;;7.60;54.10;;;;;;6124552;29;20024;-63
2023/02/03 03:19:43;;;;;;;7.90;4.28;;;7.60;54.10;;;;;;6106965;29;19933;-62
2023/02/03 03:22:49;;;;;;;13.43;3.83;;;7.60;54.10;;;;;;6124192;29;20031;-63
2023/02/03 03:26:01;;;;;;;9.80;3.35;;;7.50;54.30;;;;;;6124196;29;20039;-63
2023/02/03 03:29:28;;;;;;;7.47;4.03;;;7.50;54.40;;;;;;6124130;28;20040;-62
2023/02/03 03:32:31;;;;;;;8.55;3.45;;;7.50;54.60;;;;;;6124332;29;20114;-63
2023/02/03 03:35:44;;;;;;;11.40;3.97;;;7.40;54.60;;;;;;6122734;29;20396;-62
2023/02/03 03:39:02;;;;;;;15.32;4.20;;;7.40;54.70;;;;;;6106614;28;20039;-62
2023/02/03 03:42:33;;;;;;;8.60;3.85;;;7.40;54.70;;;;;;6124109;29;20118;-63
2023/02/03 03:45:39;;;;;;;7.15;3.53;;;7.40;54.80;;;;;;6123920;28;20032;-64
2023/02/03 03:49:00;;;;;;;10.93;4.43;;;7.40;54.80;;;;;;6123826;28;20094;-62
2023/02/03 03:52:07;;;;;;;10.95;4.43;;;7.40;54.80;;;;;;6123760;28;20028;-62
2023/02/03 03:55:11;;;;;;;11.77;3.47;;;7.40;54.80;;;;;;6122541;28;20395;-64
2023/02/03 03:58:17;;;;;;;8.75;4.35;;;7.30;54.80;;;;;;6123264;29;20036;-63
2023/02/03 04:01:20;;;;;;;12.77;4.47;;;7.40;54.80;;;;;;6123414;28;20063;-63
2023/02/03 04:04:23;;;;;;;9.68;3.28;;;7.40;54.80;;;;;;6122196;29;20365;-64
2023/02/03 04:07:43;;;;;;;7.47;4.10;;;7.40;54.80;;;;;;6123044;28;20109;-62
2023/02/03 04:10:44;;;;;;;7.65;3.42;;;7.40;54.80;;;;;;6123429;28;20078;-63
2023/02/03 04:13:45;;;;;;;15.18;3.90;;;7.40;54.80;;;;;;6122074;28;20028;-63
2023/02/03 04:16:46;;;;;;;12.73;4.07;;;7.40;54.70;;;;;;6123394;29;20035;-63
2023/02/03 04:19:48;;;;;;;7.85;3.40;;;7.40;54.80;;;;;;6121799;29;20106;-62
2023/02/03 04:22:49;;;;;;;5.95;3.10;;;7.30;54.80;;;;;;6123228;29;20031;-63
2023/02/03 04:25:49;;;;;;;12.38;3.85;;;7.30;54.90;;;;;;6121843;29;20396;-63
2023/02/03 04:28:50;;;;;;;13.70;4.50;;;7.20;55.00;;;;;;6122031;29;20036;-64
2023/02/03 04:31:51;;;;;;;8.35;3.75;;;7.20;55.10;;;;;;6106217;28;20040;-62
2023/02/03 04:34:52;;;;;;;12.38;3.25;;;7.10;55.20;;;;;;6104293;28;20028;-63
2023/02/03 04:37:53;;;;;;;16.58;3.83;;;7.10;56.00;;;;;;6099102;29;20063;-63
2023/02/03 04:40:55;;;;;;;7.72;3.75;;;7.00;55.60;;;;;;6099333;28;20067;-63
2023/02/03 04:43:56;;;;;;;8.65;3.88;;;7.00;55.70;;;;;;6099297;28;20083;-63
2023/02/03 04:46:57;;;;;;;11.65;4.13;;;6.90;55.80;;;;;;6082484;28;20028;-63
2023/02/03 04:49:58;;;;;;;7.05;3.63;;;6.90;55.90;;;;;;6097640;29;20372;-63
2023/02/03 04:52:59;;;;;;;8.63;2.75;;;6.90;56.00;;;;;;6099690;28;20182;-63
2023/02/03 04:56:00;;;;;;;10.35;4.05;;;6.90;55.90;;;;;;6098329;29;20032;-63
2023/02/03 04:59:01;;;;;;;11.95;3.83;;;6.80;55.90;;;;;;6098679;29;20058;-63
2023/02/03 05:02:03;;;;;;;10.38;2.90;;;6.80;55.90;;;;;;6099090;29;20055;-62
2023/02/03 05:05:04;;;;;;;10.65;3.70;;;6.80;56.00;;;;;;6117574;28;20090;-63
2023/02/03 05:08:05;;;;;;;8.63;3.55;;;6.80;55.90;;;;;;6121928;29;20035;-62
2023/02/03 05:11:05;;;;;;;8.80;3.00;;;6.80;55.90;;;;;;6120931;29;20170;-62
2023/02/03 05:14:06;;;;;;;10.70;4.18;;;6.80;55.90;;;;;;6122234;29;20058;-63
2023/02/03 05:17:07;;;;;;;7.25;3.25;;;6.80;55.90;;;;;;6121170;29;20071;-62
2023/02/03 05:20:09;;;;;;;14.27;4.53;;;6.90;56.00;;;;;;6121891;28;20020;-62
2023/02/03 05:23:10;;;;;;;7.53;3.97;;;6.90;56.10;;;;;;6122314;29;20035;-62
2023/02/03 05:26:11;;;;;;;10.18;4.20;;;6.80;56.10;;;;;;6120722;29;20032;-63
2023/02/03 05:29:12;;;;;;;6.60;3.10;;;6.80;56.10;;;;;;6121696;29;20035;-62
2023/02/03 05:32:13;;;;;;;11.95;4.20;;;6.80;56.10;;;;;;6120783;28;20474;-62
2023/02/03 05:35:14;;;;;;;14.32;3.75;;;6.70;56.20;;;;;;6121962;29;20472;-62
2023/02/03 05:38:15;;;;;;;8.65;3.65;;;6.70;56.30;;;;;;6121155;29;20475;-62
2023/02/03 05:44:36;;;;;;;11.00;3.60;;;6.60;56.40;;;;;;6126084;29;20081;-63
2023/02/03 05:47:37;;;;;;;13.02;3.70;;;6.60;56.50;;;;;;6125767;29;20061;-64
2023/02/03 05:50:38;;;;;;;10.43;3.38;;;6.60;56.50;;;;;;6124381;29;20031;-63
2023/02/03 05:53:41;;;;;;;7.43;3.53;;;6.60;56.50;;;;;;6125882;29;20027;-63
2023/02/03 05:56:42;;;;;;;13.82;4.07;;;6.60;56.40;;;;;;6126182;29;20024;-62
2023/02/03 05:59:43;;;;;;;7.57;3.25;;;6.70;56.40;;;;;;6125713;28;20062;-63
2023/02/03 06:02:44;;;;;;;6.63;2.92;;;6.70;56.40;;;;;;6125168;29;20039;-64
2023/02/03 06:05:45;;;;;;;7.03;3.38;;;6.70;56.40;;;;;;6125686;29;20036;-63
2023/02/03 06:08:46;;;;;;;11.07;3.25;;;6.60;56.40;;;;;;6124959;29;20024;-65
2023/02/03 06:11:46;;;;;;;11.70;3.97;;;6.60;56.50;;;;;;6125679;29;20031;-64
2023/02/03 06:14:47;;;;;;;10.15;3.80;;;6.50;56.50;;;;;;6123876;29;20035;-64
2023/02/03 06:17:48;;;;;;;12.52;3.50;;;6.50;56.70;;;;;;6123474;29;20067;-64
2023/02/03 06:20:50;;;;;;;25.23;5.18;;;6.50;56.80;;;;;;6123610;28;20039;-62
2023/02/03 06:23:50;;;;;;;12.90;3.22;;;6.40;56.90;;;;;;6124967;29;20039;-64
2023/02/03 06:26:51;;;;;;;5.50;3.22;;;6.40;56.90;;;;;;6124917;29;20118;-63
2023/02/03 06:29:52;;;;;;;10.95;4.22;;;6.40;57.00;;;;;;6123180;28;20039;-64
2023/02/03 06:32:53;;;;;;;13.52;4.85;;;6.40;57.10;;;;;;6121362;29;20447;-64
2023/02/03 06:35:54;;;;;;;10.18;4.10;;;6.40;57.10;;;;;;6100145;28;20081;-63
2023/02/03 06:38:55;;;;;;;14.80;4.78;;;6.40;57.10;;;;;;6099234;29;20434;-65
2023/02/03 06:41:56;;;;;;;11.48;4.68;;;6.50;57.10;;;;;;6101138;29;20111;-63
2023/02/03 06:44:57;;;;;;;15.77;5.60;;;6.50;57.10;;;;;;6099511;29;20034;-63
2023/02/03 06:47:57;;;;;;;10.43;4.45;;;6.50;57.00;;;;;;6100251;29;20449;-63
2023/02/03 06:50:58;;;;;;;16.63;4.40;;;6.50;57.00;;;;;;6099660;28;20032;-64
2023/02/03 06:54:00;;;;;;;7.20;3.28;;;6.50;56.90;;;;;;6099637;28;20127;-65
2023/02/03 06:57:00;;;;;;;14.02;4.07;;;6.50;56.80;;;;;;6116297;28;20135;-63
2023/02/03 07:00:02;;;;;;;5.65;2.95;;;6.50;56.70;;;;;;6123860;28;20035;-63
2023/02/03 07:03:03;;;;;;;9.75;3.92;;;6.50;56.70;;;;;;6124066;29;20093;-63
2023/02/03 07:06:04;;;;;;;8.30;3.58;;;6.40;56.80;;;;;;6124333;28;20039;-65
2023/02/03 07:09:05;;;;;;;14.18;3.83;;;6.30;56.80;;;;;;6123612;29;20043;-64
2023/02/03 07:12:08;;;;;;;8.73;3.78;;;6.30;57.00;;;;;;6122866;29;20030;-63
2023/02/03 07:15:10;;;;;;;11.98;4.05;;;6.30;57.10;;;;;;6122902;29;20035;-63
2023/02/03 07:18:11;;;;;;;10.85;3.40;;;6.30;57.10;;;;;;6123627;29;20027;-65
2023/02/03 07:21:13;;;;;;;7.05;3.60;;;6.20;57.10;;;;;;6124009;29;20038;-62
2023/02/03 07:24:14;;;;;;;6.43;3.80;;;6.20;57.20;;;;;;6123980;29;20036;-64
2023/02/03 07:27:15;;;;;;;7.38;4.22;;;6.20;57.30;;;;;;6123567;29;20086;-63
2023/02/03 07:30:16;;;;;;;10.63;4.03;;;6.20;57.30;;;;;;6123555;29;20024;-64
2023/02/03 07:33:16;;;;;;;7.15;4.30;;;6.20;57.80;;;;;;6122309;28;20042;-63
2023/02/03 07:36:19;;;;;;;18.92;4.68;;;6.20;57.30;;;;;;6123575;29;20028;-63
2023/02/03 07:39:20;;;;;;;12.98;4.25;;;6.20;57.30;;;;;;6121988;29;20039;-64
2023/02/03 07:42:21;;;;;;;9.75;4.60;;;6.20;57.40;;;;;;6122578;29;20043;-63
2023/02/03 07:45:25;;;;;;;10.45;4.72;;;6.20;57.50;;;;;;6122070;29;20085;-62
2023/02/03 07:48:26;;;;;;;11.13;3.88;;;6.20;57.50;;;;;;6122052;29;20035;-63
2023/02/03 07:51:27;;;;;;;16.95;4.00;;;6.20;57.60;;;;;;6121470;28;20491;-64
2023/02/03 07:54:28;;;;;;;6.03;3.05;;;6.20;57.50;;;;;;6122037;29;20036;-63
2023/02/03 07:57:29;;;;;;;11.68;4.78;;;6.30;57.50;;;;;;6122940;29;20028;-62
2023/02/03 08:00:30;;;;;;;12.15;3.55;;;6.30;57.40;;;;;;6122729;29;20510;-64
2023/02/03 08:03:31;;;;;;;33.20;4.15;;;6.30;58.00;;;;;;6121938;29;20035;-64
2023/02/03 08:06:32;;;;;;;16.88;4.25;;;6.30;57.40;;;;;;6121975;29;20040;-63
2023/02/03 08:09:33;;;;;;;5.30;3.20;;;6.30;57.40;;;;;;6121423;28;20023;-64
2023/02/03 08:12:34;;;;;;;15.35;4.80;;;6.30;57.50;;;;;;6122927;28;20028;-63
2023/02/03 08:15:34;;;;;;;16.25;3.83;;;6.30;57.50;;;;;;6121578;29;20484;-63
2023/02/03 08:18:35;;;;;;;9.18;4.18;;;6.30;57.40;;;;;;6121272;28;20043;-64
2023/02/03 08:21:36;;;;;;;14.65;4.30;;;6.30;57.40;;;;;;6121462;28;20114;-64
2023/02/03 08:24:37;;;;;;;12.35;5.47;;;6.30;57.40;;;;;;6121806;29;20028;-63
2023/02/03 08:27:39;;;;;;;15.10;3.97;;;6.30;57.40;;;;;;6122486;28;20032;-64
2023/02/03 08:30:40;;;;;;;9.70;4.40;;;6.30;57.40;;;;;;6122482;29;20043;-63
2023/02/03 08:33:41;;;;;;;14.27;4.10;;;6.30;57.50;;;;;;6122157;29;20039;-63
2023/02/03 08:36:43;;;;;;;21.52;5.28;;;6.30;57.70;;;;;;6122555;29;20082;-63
2023/02/03 08:39:43;;;;;;;22.67;5.30;;;6.40;57.80;;;;;;6121928;29;20467;-63
2023/02/03 08:42:44;;;;;;;13.75;4.95;;;6.50;57.60;;;;;;6120998;29;20038;-64
2023/02/03 08:45:45;;;;;;;11.38;5.50;;;6.70;57.40;;;;;;6120895;29;20031;-63
2023/02/03 08:48:46;;;;;;;15.05;5.65;;;6.70;57.20;;;;;;6121574;28;20039;-63
2023/02/03 08:51:47;;;;;;;9.57;5.03;;;6.80;57.00;;;;;;6121831;28;20105;-63
2023/02/03 08:54:48;;;;;;;12.50;5.20;;;6.90;56.90;;;;;;6089356;28;20388;-63
2023/02/03 08:57:49;;;;;;;15.48;5.50;;;7.00;56.60;;;;;;6104429;29;20093;-64
2023/02/03 09:00:51;;;;;;;21.52;5.38;;;7.00;56.50;;;;;;6104964;28;20492;-63
2023/02/03 09:03:52;;;;;;;27.08;5.93;;;7.10;56.40;;;;;;6120587;29;20448;-64
2023/02/03 09:06:53;;;;;;;10.48;4.75;;;7.20;56.20;;;;;;6120518;29;20043;-64
2023/02/03 09:09:54;;;;;;;11.45;4.85;;;7.30;55.80;;;;;;6120349;29;20122;-63
2023/02/03 09:12:55;;;;;;;13.27;5.00;;;7.40;55.70;;;;;;6122705;28;20032;-64
2023/02/03 09:15:59;;;;;;;17.63;6.00;;;7.50;55.60;;;;;;6129630;28;20034;-63
2023/02/03 09:19:00;;;;;;;10.20;5.70;;;7.50;55.50;;;;;;6129178;29;20036;-64
2023/02/03 09:22:01;;;;;;;18.70;6.78;;;7.60;55.40;;;;;;6129296;29;20039;-63
2023/02/03 09:25:02;;;;;;;9.02;4.53;;;7.70;55.30;;;;;;6129428;29;20051;-63
2023/02/03 09:28:04;;;;;;;14.35;6.00;;;7.80;55.20;;;;;;6127741;29;20039;-64
2023/02/03 09:31:07;;;;;;;26.67;5.30;;;7.90;55.10;;;;;;6129423;29;20082;-63
2023/02/03 09:34:08;;;;;;;13.35;4.32;;;8.00;54.80;;;;;;6127643;28;20034;-64
2023/02/03 09:37:09;;;;;;;11.13;5.07;;;8.20;54.60;;;;;;6129297;29;20035;-63
2023/02/03 09:40:22;;;;;;;20.20;6.10;;;8.30;54.40;;;;;;6128887;28;20053;-64
2023/02/03 09:43:49;;;;;;;9.95;4.47;;;8.30;54.30;;;;;;6128954;28;20067;-62
2023/02/03 09:46:55;;;;;;;10.38;5.88;;;8.40;54.00;;;;;;6104005;29;20032;-63
2023/02/03 09:50:03;;;;;;;11.35;5.32;;;8.50;53.70;;;;;;6104875;29;20114;-64
2023/02/03 09:53:13;;;;;;;13.15;5.97;;;8.50;53.70;;;;;;6103733;29;20059;-64
2023/02/03 09:56:35;;;;;;;23.02;6.60;;;8.60;53.50;;;;;;6104778;28;20036;-63
2023/02/03 09:59:35;;;;;;;10.45;5.57;;;8.70;53.30;;;;;;6087574;28;20050;-64
2023/02/03 10:02:50;;;;;;;13.40;5.45;;;8.70;53.10;;;;;;6105145;29;20733;-63
2023/02/03 10:06:19;;;;;;;13.35;5.60;;;8.80;52.90;;;;;;6104059;29;20032;-64
2023/02/03 10:09:38;;;;;;;12.00;5.55;;;8.80;52.80;;;;;;6087905;28;20472;-64
2023/02/03 10:13:06;;;;;;;14.40;5.10;;;8.90;52.80;;;;;;6105473;28;20388;-63
2023/02/03 10:16:20;;;;;;;16.35;5.30;;;9.00;52.70;;;;;;6105525;29;20024;-64
2023/02/03 10:19:27;;;;;;;10.95;5.63;;;9.00;52.40;;;;;;6105167;29;20028;-65
2023/02/03 10:22:33;;;;;;;13.93;5.90;;;9.10;52.20;;;;;;6105375;28;20036;-63
2023/02/03 10:25:53;;;;;;;8.38;4.57;;;9.30;51.90;;;;;;6100942;29;20346;-63
2023/02/03 10:29:02;;;;;;;11.20;4.65;;;9.60;51.30;;;;;;6099930;29;20032;-63
2023/02/03 10:32:09;;;;;;;16.98;6.00;;;9.90;50.50;;;;;;6101326;28;20041;-64
2023/02/03 10:35:14;;;;;;;9.50;4.47;;;10.00;50.10;;;;;;6121983;29;20024;-63
2023/02/03 10:38:34;;;;;;;17.25;5.28;;;10.30;49.70;;;;;;6124220;29;20035;-64
2023/02/03 10:41:34;;;;;;;15.02;4.60;;;10.40;49.20;;;;;;6124216;28;20076;-64
2023/02/03 10:44:42;;;;;;;13.57;5.13;;;10.50;49.20;;;;;;6124302;29;20035;-63
2023/02/03 10:48:03;;;;;;;14.57;5.43;;;10.70;49.10;;;;;;6124814;28;20056;-62
2023/02/03 10:51:11;;;;;;;13.32;5.30;;;11.00;48.60;;;;;;6123728;29;20503;-64
2023/02/03 10:54:32;;;;;;;12.55;5.32;;;11.20;47.70;;;;;;6124322;29;20032;-65
2023/02/03 10:57:38;;;;;;;16.02;7.20;;;11.40;47.50;;;;;;6122374;28;20061;-66
2023/02/03 11:00:39;;;;;;;16.02;6.28;;;11.60;47.00;;;;;;6124330;28;20119;-64
2023/02/03 11:03:43;;;;;;;20.15;5.53;;;11.80;46.50;;;;;;6124331;29;20062;-63
2023/02/03 11:07:00;;;;;;;21.73;7.90;;;11.90;46.40;;;;;;6123849;28;20476;-64
2023/02/03 11:10:01;;;;;;;26.85;6.32;;;12.20;46.10;;;;;;6123643;28;20039;-64
2023/02/03 11:13:23;;;;;;;12.13;3.80;;;12.50;45.80;;;;;;6123837;29;20399;-63
2023/02/03 11:16:24;;;;;;;20.95;7.22;;;12.90;44.90;;;;;;6122750;29;20031;-63
2023/02/03 11:19:25;;;;;;;8.50;3.67;;;13.20;43.40;;;;;;6121939;29;20031;-64
2023/02/03 11:22:36;;;;;;;8.63;4.32;;;13.40;43.20;;;;;;6122082;29;20032;-63
2023/02/03 11:25:37;;;;;;;14.88;4.13;;;13.50;41.80;;;;;;6123674;29;20074;-64
2023/02/03 11:28:42;;;;;;;12.52;4.25;;;13.70;41.60;;;;;;6122956;29;20028;-63
2023/02/03 11:31:47;;;;;;;13.93;3.95;;;13.90;41.20;;;;;;6122010;28;20408;-64
2023/02/03 11:34:59;;;;;;;9.60;4.57;;;14.30;41.10;;;;;;6121615;28;20024;-63
2023/02/03 11:38:01;;;;;;;15.77;4.82;;;14.90;40.50;;;;;;6122652;28;20031;-64
2023/02/03 11:41:02;;;;;;;11.27;4.50;;;15.30;39.60;;;;;;6123508;28;20107;-62
2023/02/03 11:44:15;;;;;;;8.13;4.35;;;15.80;38.40;;;;;;6123020;29;20131;-64
2023/02/03 11:47:17;;;;;;;13.90;4.60;;;16.10;36.90;;;;;;6123524;28;20040;-63
2023/02/03 11:50:45;;;;;;;18.20;4.53;;;16.20;36.70;;;;;;6122952;29;20032;-64
2023/02/03 11:54:12;;;;;;;6.28;4.10;;;16.40;36.40;;;;;;6123436;28;20046;-65
2023/02/03 11:57:33;;;;;;;7.72;3.85;;;16.60;36.20;;;;;;6195273;28;20042;-64
2023/02/03 12:00:42;;;;;;;8.77;4.50;;;16.90;35.80;;;;;;6178687;28;20038;-63
2023/02/03 12:04:10;;;;;;;11.57;4.40;;;17.10;35.60;;;;;;6194987;28;20034;-63
2023/02/03 12:07:20;;;;;;;10.82;4.75;;;17.50;35.30;;;;;;6194804;28;20524;-63
2023/02/03 12:10:42;;;;;;;16.38;4.07;;;18.00;34.40;;;;;;6194689;28;20505;-63
2023/02/03 12:13:43;;;;;;;10.20;4.22;;;18.40;32.90;;;;;;6178702;28;20824;-63
2023/02/03 12:16:59;;;;;;;6.97;3.60;;;18.40;32.60;;;;;;6195157;28;20023;-64
2023/02/03 12:20:19;;;;;;;8.35;3.90;;;18.40;32.50;;;;;;6178826;28;20069;-64
2023/02/03 12:23:23;;;;;;;11.05;4.05;;;18.20;32.80;;;;;;6195884;28;20034;-65
2023/02/03 12:26:37;;;;;;;10.02;4.07;;;17.70;33.40;;;;;;6196976;28;20093;-66
2023/02/03 12:29:46;;;;;;;9.98;4.43;;;17.10;34.40;;;;;;6178740;28;20399;-63
2023/02/03 12:32:58;;;;;;;12.32;4.07;;;16.60;35.00;;;;;;6168281;28;20055;-64
2023/02/03 12:36:14;;;;;;;10.50;3.88;;;16.20;35.50;;;;;;6122807;29;20032;-64
2023/02/03 12:39:18;;;;;;;13.80;4.60;;;15.70;35.80;;;;;;6122245;29;20097;-63
2023/02/03 12:42:27;;;;;;;16.08;4.18;;;15.30;36.60;;;;;;6122089;29;20035;-64
2023/02/03 12:45:31;;;;;;;10.63;4.38;;;14.90;37.20;;;;;;6121097;28;20036;-64
2023/02/03 12:48:39;;;;;;;9.95;4.28;;;14.70;37.90;;;;;;6121025;29;20089;-64
2023/02/03 12:51:48;;;;;;;21.00;5.28;;;14.40;38.20;;;;;;6120530;29;20039;-64
2023/02/03 12:55:07;;;;;;;13.57;6.03;;;14.30;38.50;;;;;;6121769;29;20027;-63
2023/02/03 12:58:19;;;;;;;;;;;14.20;38.90;;;;;;6121538;28;20476;-64
2023/02/03 13:01:29;;;;;;;11.38;3.72;;;14.10;39.10;;;;;;6121773;29;19915;-63
2023/02/03 13:04:40;;;;;;;13.52;5.25;;;13.90;39.20;;;;;;6120339;29;20053;-63
2023/02/03 13:07:49;;;;;;;17.23;4.80;;;13.80;39.60;;;;;;6121241;29;20031;-63
2023/02/03 13:11:05;;;;;;;11.38;5.70;;;13.70;39.80;;;;;;6121505;29;20054;-64
2023/02/03 13:14:31;;;;;;;11.13;4.50;;;13.60;40.10;;;;;;6121683;29;20036;-63
2023/02/03 13:17:55;;;;;;;10.10;4.30;;;13.50;40.30;;;;;;6119961;28;20050;-63
2023/02/03 13:20:56;;;;;;;8.88;4.53;;;13.40;40.40;;;;;;6121021;29;20480;-62
2023/02/03 13:23:57;;;;;;;12.38;4.13;;;13.40;40.60;;;;;;6119950;28;20514;-64
2023/02/03 13:27:21;;;;;;;11.60;4.65;;;13.30;40.70;;;;;;6121618;28;20039;-62
2023/02/03 13:30:42;;;;;;;12.30;5.03;;;13.30;41.00;;;;;;6120532;28;20064;-65
2023/02/03 13:34:03;;;;;;;17.95;5.13;;;13.20;41.10;;;;;;6121610;29;20028;-63
2023/02/03 13:37:13;;;;;;;10.30;4.60;;;13.10;41.20;;;;;;6111225;29;20138;-63
2023/02/03 13:40:39;;;;;;;13.48;4.63;;;13.10;41.30;;;;;;6120963;29;20031;-64
2023/02/03 13:43:49;;;;;;;12.77;4.93;;;13.10;41.50;;;;;;6121361;29;20043;-63
2023/02/03 13:46:51;;;;;;;8.07;3.58;;;13.20;41.60;;;;;;6119826;29;20550;-64
2023/02/03 13:49:58;;;;;;;13.65;3.70;;;13.20;41.60;;;;;;6120583;29;20050;-64
2023/02/03 13:53:01;;;;;;;12.95;4.55;;;13.20;41.60;;;;;;6089010;29;20035;-64
2023/02/03 13:56:08;;;;;;;9.80;3.83;;;13.30;41.70;;;;;;6120520;29;20056;-64
2023/02/03 13:59:15;;;;;;;9.82;3.83;;;13.30;41.60;;;;;;6120976;29;20032;-64
2023/02/03 14:02:18;;;;;;;9.82;3.67;;;13.30;41.60;;;;;;6124556;29;20419;-64
2023/02/03 14:05:47;;;;;;;13.45;4.63;;;13.30;41.60;;;;;;6123928;29;20039;-64
2023/02/03 14:08:50;;;;;;;7.50;3.30;;;13.30;41.60;;;;;;6124479;29;20111;-64
2023/02/03 14:12:14;;;;;;;10.40;3.05;;;13.40;41.50;;;;;;6124716;29;20568;-63
2023/02/03 14:15:27;;;;;;;8.07;3.35;;;13.30;41.40;;;;;;6125182;29;20055;-64
2023/02/03 14:18:42;;;;;;;8.80;3.72;;;13.40;41.50;;;;;;6124417;29;20032;-63
2023/02/03 14:21:58;;;;;;;11.70;4.50;;;13.40;41.40;;;;;;6124475;29;20039;-64
2023/02/03 14:25:05;;;;;;;15.43;3.63;;;13.40;41.40;;;;;;6123171;29;20090;-64
2023/02/03 14:28:17;;;;;;;6.88;3.92;;;13.40;41.50;;;;;;6099826;29;20039;-65
2023/02/03 14:31:23;;;;;;;9.23;3.97;;;13.40;41.40;;;;;;6101225;28;20032;-63
2023/02/03 14:34:43;;;;;;;10.48;4.63;;;13.40;41.40;;;;;;6115706;29;20085;-63
2023/02/03 14:38:11;;;;;;;7.50;4.32;;;13.50;41.50;;;;;;6122948;29;20039;-63
2023/02/03 14:41:43;;;;;;;10.93;4.35;;;13.50;41.50;;;;;;6124496;29;20531;-63
2023/02/03 14:45:14;;;;;;;8.05;4.03;;;13.50;41.50;;;;;;6121364;29;20504;-63
2023/02/03 14:48:30;;;;;;;18.20;4.53;;;13.60;41.50;;;;;;6123751;29;20035;-64
2023/02/03 14:51:51;;;;;;;10.30;4.25;;;13.60;41.40;;;;;;6124125;28;20039;-63
2023/02/03 14:55:19;;;;;;;12.48;4.43;;;13.60;41.60;;;;;;6123869;29;20107;-63
2023/02/03 14:58:35;;;;;;;5.78;3.83;;;13.60;41.60;;;;;;6122127;29;20043;-63
2023/02/03 15:01:36;;;;;;;7.50;3.08;;;13.60;41.60;;;;;;6123789;29;20039;-64
2023/02/03 15:04:37;;;;;;;9.85;2.63;;;13.60;41.60;;;;;;6123625;29;20438;-63
2023/02/03 15:07:50;;;;;;;7.20;2.45;;;13.60;41.60;;;;;;6122189;28;20062;-64
2023/02/03 15:10:51;;;;;;;3.40;1.30;;;13.60;41.60;;;;;;6123416;29;20032;-64
2023/02/03 15:13:54;;;;;;;7.30;1.33;;;13.70;41.60;;;;;;6122365;29;20063;-63
2023/02/03 15:16:56;;;;;;;5.88;1.35;;;13.70;41.60;;;;;;6123585;29;20027;-63
2023/02/03 15:19:57;;;;;;;3.45;1.98;;;13.70;41.50;;;;;;6122103;29;20047;-63
2023/02/03 15:22:58;;;;;;;9.32;3.20;;;13.80;41.50;;;;;;6123609;28;20055;-63
2023/02/03 15:26:01;;;;;;;6.35;3.70;;;13.70;41.40;;;;;;6123538;29;20066;-63
2023/02/03 15:29:05;;;;;;;10.05;3.47;;;13.80;41.60;;;;;;6121789;29;20066;-63
2023/02/03 15:32:23;;;;;;;7.45;3.30;;;13.70;41.60;;;;;;6123131;29;20107;-63
2023/02/03 15:35:26;;;;;;;20.42;3.80;;;13.70;41.70;;;;;;6123087;29;20458;-64
2023/02/03 15:38:37;;;;;;;7.75;3.40;;;13.80;41.80;;;;;;6122873;29;20039;-63
2023/02/03 15:41:38;;;;;;;22.65;3.30;;;13.80;41.80;;;;;;6121683;29;20031;-64
2023/02/03 15:45:06;;;;;;;9.07;3.45;;;13.80;41.80;;;;;;6122036;29;20046;-63
2023/02/03 15:48:20;;;;;;;6.78;3.25;;;13.80;41.90;;;;;;6049635;29;20080;-63
2023/02/03 15:51:32;;;;;;;7.78;2.95;;;13.70;42.00;;;;;;6034691;29;20049;-62
2023/02/03 15:54:40;;;;;;;17.48;3.85;;;13.70;42.00;;;;;;6050027;29;20037;-64
2023/02/03 15:57:45;;;;;;;6.57;2.75;;;13.70;42.00;;;;;;6049421;29;20033;-64
2023/02/03 16:00:56;;;;;;;7.13;2.70;;;13.60;42.00;;;;;;6018694;29;20056;-67
2023/02/03 16:03:58;;;;;;;8.70;3.47;;;13.60;42.00;;;;;;6050009;29;20037;-64
2023/02/03 16:06:59;;;;;;;12.10;3.55;;;13.60;42.10;;;;;;6034682;29;20041;-65
2023/02/03 16:10:00;;;;;;;8.90;2.85;;;13.50;42.20;;;;;;6033609;29;20029;-63
2023/02/03 16:13:16;;;;;;;5.00;2.50;;;13.50;42.30;;;;;;6034043;29;20390;-63
2023/02/03 16:16:20;;;;;;;11.23;2.67;;;13.50;42.40;;;;;;6034559;29;20123;-64